sensor_id;sensor_type;location;lat;lon;timestamp;pressure;altitude;pressure_sealevel;temperature;humidity
16544;BME280;8384;47.996;7.786;2023-02-22T00:00:56;98682.16;;;6.09;57.22
16544;BME280;8384;47.996;7.786;2023-02-22T00:03:28;98679.47;;;5.79;58.60
16544;BME280;8384;47.996;7.786;2023-02-22T00:06:04;98690.75;;;5.33;60.84
16544;BME280;8384;47.996;7.786;2023-02-22T00:08:32;98683.75;;;5.25;61.79
16544;BME280;8384;47.996;7.786;2023-02-22T00:10:59;98686.22;;;5.27;61.41
16544;BME280;8384;47.996;7.786;2023-02-22T00:13:26;98687.97;;;5.21;62.24
16544;BME280;8384;47.996;7.786;2023-02-22T00:15:54;98685.50;;;5.01;62.19
16544;BME280;8384;47.996;7.786;2023-02-22T00:18:20;98689.63;;;5.04;63.50
16544;BME280;8384;47.996;7.786;2023-02-22T00:20:45;98699.88;;;5.02;63.74
16544;BME280;8384;47.996;7.786;2023-02-22T00:23:22;98692.25;;;4.92;65.14
16544;BME280;8384;47.996;7.786;2023-02-22T00:25:49;98674.06;;;4.80;65.89
16544;BME280;8384;47.996;7.786;2023-02-22T00:28:16;98683.63;;;5.02;66.74
16544;BME280;8384;47.996;7.786;2023-02-22T00:30:42;98683.47;;;4.97;67.42
16544;BME280;8384;47.996;7.786;2023-02-22T00:33:08;98678.66;;;4.80;68.54
16544;BME280;8384;47.996;7.786;2023-02-22T00:35:34;98679.56;;;4.74;68.89
16544;BME280;8384;47.996;7.786;2023-02-22T00:38:01;98646.69;;;4.52;69.19
16544;BME280;8384;47.996;7.786;2023-02-22T00:40:31;98676.31;;;4.65;69.69
16544;BME280;8384;47.996;7.786;2023-02-22T00:42:58;98672.44;;;4.54;70.28
16544;BME280;8384;47.996;7.786;2023-02-22T00:45:26;98674.56;;;4.52;70.23
16544;BME280;8384;47.996;7.786;2023-02-22T00:47:52;98666.31;;;4.47;70.78
16544;BME280;8384;47.996;7.786;2023-02-22T00:50:19;98663.72;;;4.52;70.20
16544;BME280;8384;47.996;7.786;2023-02-22T00:52:45;98665.59;;;4.33;71.63
16544;BME280;8384;47.996;7.786;2023-02-22T00:55:16;98667.81;;;4.17;71.98
16544;BME280;8384;47.996;7.786;2023-02-22T00:57:41;98637.16;;;3.98;72.57
16544;BME280;8384;47.996;7.786;2023-02-22T01:00:15;98665.72;;;4.19;72.00
16544;BME280;8384;47.996;7.786;2023-02-22T01:02:41;98662.22;;;4.12;72.40
16544;BME280;8384;47.996;7.786;2023-02-22T01:05:09;98662.53;;;4.04;73.08
16544;BME280;8384;47.996;7.786;2023-02-22T01:07:36;98659.41;;;4.00;73.32
16544;BME280;8384;47.996;7.786;2023-02-22T01:10:02;98641.41;;;3.87;73.24
16544;BME280;8384;47.996;7.786;2023-02-22T01:12:29;98631.09;;;3.78;73.88
16544;BME280;8384;47.996;7.786;2023-02-22T01:14:55;98659.59;;;4.05;73.21
16544;BME280;8384;47.996;7.786;2023-02-22T01:17:24;98654.78;;;4.08;71.76
16544;BME280;8384;47.996;7.786;2023-02-22T01:19:52;98645.50;;;3.97;72.63
16544;BME280;8384;47.996;7.786;2023-02-22T01:22:19;98651.88;;;4.09;71.68
16544;BME280;8384;47.996;7.786;2023-02-22T01:24:48;98653.69;;;3.90;72.40
16544;BME280;8384;47.996;7.786;2023-02-22T01:27:15;98631.50;;;3.81;72.74
16544;BME280;8384;47.996;7.786;2023-02-22T01:29:40;98616.72;;;3.52;73.37
16544;BME280;8384;47.996;7.786;2023-02-22T01:32:06;98647.38;;;3.71;73.25
16544;BME280;8384;47.996;7.786;2023-02-22T01:34:31;98647.38;;;3.71;73.32
16544;BME280;8384;47.996;7.786;2023-02-22T01:36:57;98647.00;;;3.67;74.11
16544;BME280;8384;47.996;7.786;2023-02-22T01:39:22;98640.53;;;3.68;74.42
16544;BME280;8384;47.996;7.786;2023-02-22T01:41:48;98619.91;;;3.42;74.92
16544;BME280;8384;47.996;7.786;2023-02-22T01:46:49;98603.56;;;3.30;75.38
16544;BME280;8384;47.996;7.786;2023-02-22T01:49:15;98640.38;;;3.63;74.25
16544;BME280;8384;47.996;7.786;2023-02-22T01:51:43;98642.28;;;3.56;74.56
16544;BME280;8384;47.996;7.786;2023-02-22T01:54:15;98637.09;;;3.54;74.85
16544;BME280;8384;47.996;7.786;2023-02-22T01:56:49;98627.59;;;3.45;74.22
16544;BME280;8384;47.996;7.786;2023-02-22T01:59:17;98634.69;;;3.39;74.86
16544;BME280;8384;47.996;7.786;2023-02-22T02:01:43;98609.22;;;3.28;75.21
16544;BME280;8384;47.996;7.786;2023-02-22T02:04:16;98629.72;;;3.36;74.69
16544;BME280;8384;47.996;7.786;2023-02-22T02:06:42;98632.59;;;3.41;75.64
16544;BME280;8384;47.996;7.786;2023-02-22T02:09:31;98607.00;;;3.12;75.42
16544;BME280;8384;47.996;7.786;2023-02-22T02:11:59;98634.47;;;3.41;75.45
16544;BME280;8384;47.996;7.786;2023-02-22T02:14:27;98627.47;;;3.33;75.50
16544;BME280;8384;47.996;7.786;2023-02-22T02:16:53;98626.47;;;3.21;76.50
16544;BME280;8384;47.996;7.786;2023-02-22T02:22:20;98629.41;;;3.19;76.83
16544;BME280;8384;47.996;7.786;2023-02-22T02:28:33;98620.31;;;3.13;76.80
16544;BME280;8384;47.996;7.786;2023-02-22T02:34:18;98619.06;;;3.09;76.17
16544;BME280;8384;47.996;7.786;2023-02-22T02:37:10;98624.91;;;3.06;76.32
16544;BME280;8384;47.996;7.786;2023-02-22T02:39:57;98616.13;;;3.11;76.01
16544;BME280;8384;47.996;7.786;2023-02-22T02:42:35;98607.69;;;3.00;76.54
16544;BME280;8384;47.996;7.786;2023-02-22T02:45:16;98575.09;;;2.95;76.41
16544;BME280;8384;47.996;7.786;2023-02-22T02:47:49;98605.94;;;3.13;76.66
16544;BME280;8384;47.996;7.786;2023-02-22T02:50:22;98596.63;;;3.09;76.59
16544;BME280;8384;47.996;7.786;2023-02-22T02:52:50;98596.00;;;3.07;76.41
16544;BME280;8384;47.996;7.786;2023-02-22T02:55:18;98581.31;;;2.96;77.11
16544;BME280;8384;47.996;7.786;2023-02-22T02:57:44;98589.78;;;3.06;76.92
16544;BME280;8384;47.996;7.786;2023-02-22T03:00:09;98589.00;;;2.99;76.97
16544;BME280;8384;47.996;7.786;2023-02-22T03:06:04;98584.91;;;2.83;77.40
16544;BME280;8384;47.996;7.786;2023-02-22T03:11:19;98590.66;;;3.00;76.88
16544;BME280;8384;47.996;7.786;2023-02-22T03:14:21;98576.28;;;3.06;75.89
16544;BME280;8384;47.996;7.786;2023-02-22T03:16:53;98554.38;;;2.89;76.02
16544;BME280;8384;47.996;7.786;2023-02-22T03:19:31;98566.44;;;3.19;74.88
16544;BME280;8384;47.996;7.786;2023-02-22T03:22:13;98560.78;;;3.27;73.75
16544;BME280;8384;47.996;7.786;2023-02-22T03:27:30;98571.66;;;3.45;72.39
16544;BME280;8384;47.996;7.786;2023-02-22T03:29:59;98566.44;;;3.51;72.17
16544;BME280;8384;47.996;7.786;2023-02-22T03:32:30;98552.25;;;3.30;71.88
16544;BME280;8384;47.996;7.786;2023-02-22T03:35:02;98566.59;;;3.30;72.40
16544;BME280;8384;47.996;7.786;2023-02-22T03:37:33;98571.25;;;3.17;73.19
16544;BME280;8384;47.996;7.786;2023-02-22T03:40:01;98556.63;;;2.92;73.48
16544;BME280;8384;47.996;7.786;2023-02-22T03:42:40;98564.19;;;3.15;73.11
16544;BME280;8384;47.996;7.786;2023-02-22T03:45:07;98553.28;;;3.29;72.10
16544;BME280;8384;47.996;7.786;2023-02-22T03:47:38;98572.06;;;3.49;70.77
16544;BME280;8384;47.996;7.786;2023-02-22T03:50:10;98554.25;;;3.41;70.46
16544;BME280;8384;47.996;7.786;2023-02-22T03:52:40;98560.09;;;3.64;69.71
16544;BME280;8384;47.996;7.786;2023-02-22T03:55:07;98545.66;;;3.51;69.11
16544;BME280;8384;47.996;7.786;2023-02-22T03:57:37;98562.78;;;3.64;69.18
16544;BME280;8384;47.996;7.786;2023-02-22T04:00:06;98561.25;;;3.74;69.06
16544;BME280;8384;47.996;7.786;2023-02-22T04:02:31;98554.75;;;3.57;69.52
16544;BME280;8384;47.996;7.786;2023-02-22T04:04:57;98528.66;;;3.44;68.77
16544;BME280;8384;47.996;7.786;2023-02-22T04:07:22;98552.31;;;3.74;68.79
16544;BME280;8384;47.996;7.786;2023-02-22T04:09:48;98557.72;;;3.74;68.10
16544;BME280;8384;47.996;7.786;2023-02-22T04:12:13;98553.31;;;3.80;68.29
16544;BME280;8384;47.996;7.786;2023-02-22T04:14:38;98562.88;;;3.82;68.04
16544;BME280;8384;47.996;7.786;2023-02-22T04:17:03;98534.88;;;3.70;67.89
16544;BME280;8384;47.996;7.786;2023-02-22T04:19:29;98522.69;;;3.60;68.07
16544;BME280;8384;47.996;7.786;2023-02-22T04:21:54;98538.63;;;3.69;67.84
16544;BME280;8384;47.996;7.786;2023-02-22T04:24:19;98558.19;;;3.89;67.15
16544;BME280;8384;47.996;7.786;2023-02-22T04:26:45;98529.84;;;3.73;66.95
16544;BME280;8384;47.996;7.786;2023-02-22T04:29:10;98507.25;;;3.68;66.63
16544;BME280;8384;47.996;7.786;2023-02-22T04:31:36;98509.50;;;3.71;66.53
16544;BME280;8384;47.996;7.786;2023-02-22T04:34:01;98544.72;;;4.08;66.12
16544;BME280;8384;47.996;7.786;2023-02-22T04:36:27;98536.00;;;4.06;65.87
16544;BME280;8384;47.996;7.786;2023-02-22T04:38:56;98548.16;;;4.15;66.58
16544;BME280;8384;47.996;7.786;2023-02-22T04:41:21;98536.38;;;4.10;66.30
16544;BME280;8384;47.996;7.786;2023-02-22T04:43:47;98545.53;;;4.27;65.48
16544;BME280;8384;47.996;7.786;2023-02-22T04:46:12;98532.34;;;4.19;65.53
16544;BME280;8384;47.996;7.786;2023-02-22T04:48:38;98545.78;;;4.26;64.87
16544;BME280;8384;47.996;7.786;2023-02-22T04:51:03;98506.31;;;3.99;64.95
16544;BME280;8384;47.996;7.786;2023-02-22T04:53:29;98561.13;;;4.32;64.53
16544;BME280;8384;47.996;7.786;2023-02-22T04:55:54;98538.09;;;4.23;63.89
16544;BME280;8384;47.996;7.786;2023-02-22T04:58:20;98544.44;;;4.35;63.56
16544;BME280;8384;47.996;7.786;2023-02-22T05:00:46;98555.31;;;4.28;63.73
16544;BME280;8384;47.996;7.786;2023-02-22T05:03:11;98528.69;;;4.07;63.83
16544;BME280;8384;47.996;7.786;2023-02-22T05:05:36;98518.81;;;4.19;63.28
16544;BME280;8384;47.996;7.786;2023-02-22T05:08:01;98550.13;;;4.27;63.50
16544;BME280;8384;47.996;7.786;2023-02-22T05:10:27;98540.91;;;4.16;64.02
16544;BME280;8384;47.996;7.786;2023-02-22T05:12:52;98500.03;;;3.62;64.96
16544;BME280;8384;47.996;7.786;2023-02-22T05:15:19;98520.19;;;3.84;65.36
16544;BME280;8384;47.996;7.786;2023-02-22T05:17:45;98511.31;;;3.77;65.78
16544;BME280;8384;47.996;7.786;2023-02-22T05:20:18;98546.50;;;3.96;65.14
16544;BME280;8384;47.996;7.786;2023-02-22T05:22:45;98499.97;;;3.43;67.11
16544;BME280;8384;47.996;7.786;2023-02-22T05:25:11;98507.09;;;2.34;70.09
16544;BME280;8384;47.996;7.786;2023-02-22T05:27:36;98519.28;;;1.58;73.91
16544;BME280;8384;47.996;7.786;2023-02-22T05:30:02;98528.81;;;1.33;76.53
16544;BME280;8384;47.996;7.786;2023-02-22T05:32:28;98506.44;;;1.67;74.96
16544;BME280;8384;47.996;7.786;2023-02-22T05:34:53;98509.50;;;1.84;74.32
16544;BME280;8384;47.996;7.786;2023-02-22T05:37:18;98498.53;;;1.78;73.97
16544;BME280;8384;47.996;7.786;2023-02-22T05:39:44;98511.56;;;1.95;73.81
16544;BME280;8384;47.996;7.786;2023-02-22T05:42:10;98497.06;;;1.89;74.57
16544;BME280;8384;47.996;7.786;2023-02-22T05:44:35;98518.63;;;1.96;74.56
16544;BME280;8384;47.996;7.786;2023-02-22T05:47:01;98519.00;;;2.06;74.96
16544;BME280;8384;47.996;7.786;2023-02-22T05:49:26;98361.31;;;1.04;74.78
16544;BME280;8384;47.996;7.786;2023-02-22T05:51:52;98535.16;;;2.13;75.51
16544;BME280;8384;47.996;7.786;2023-02-22T05:54:19;98506.66;;;1.25;77.78
16544;BME280;8384;47.996;7.786;2023-02-22T05:56:45;98547.06;;;1.31;79.89
16544;BME280;8384;47.996;7.786;2023-02-22T05:59:10;98528.59;;;1.48;79.30
16544;BME280;8384;47.996;7.786;2023-02-22T06:01:36;98517.66;;;1.50;78.57
16544;BME280;8384;47.996;7.786;2023-02-22T06:04:01;98516.59;;;1.64;78.52
16544;BME280;8384;47.996;7.786;2023-02-22T06:06:26;98494.22;;;1.44;78.90
16544;BME280;8384;47.996;7.786;2023-02-22T06:08:51;98480.13;;;1.48;79.15
16544;BME280;8384;47.996;7.786;2023-02-22T06:11:17;98494.63;;;1.61;79.14
16544;BME280;8384;47.996;7.786;2023-02-22T06:13:51;98539.75;;;1.99;78.82
16544;BME280;8384;47.996;7.786;2023-02-22T06:16:17;98528.34;;;1.90;79.22
16544;BME280;8384;47.996;7.786;2023-02-22T06:18:43;98499.59;;;1.71;80.13
16544;BME280;8384;47.996;7.786;2023-02-22T06:21:08;98514.09;;;1.83;80.60
16544;BME280;8384;47.996;7.786;2023-02-22T06:23:33;98543.91;;;1.95;80.69
16544;BME280;8384;47.996;7.786;2023-02-22T06:25:59;98519.66;;;1.88;80.70
16544;BME280;8384;47.996;7.786;2023-02-22T06:28:24;98549.09;;;1.97;80.63
16544;BME280;8384;47.996;7.786;2023-02-22T06:30:50;98547.81;;;2.13;80.35
16544;BME280;8384;47.996;7.786;2023-02-22T06:33:15;98533.16;;;1.95;81.01
16544;BME280;8384;47.996;7.786;2023-02-22T06:35:40;98544.09;;;2.00;80.83
16544;BME280;8384;47.996;7.786;2023-02-22T06:38:06;98525.50;;;1.85;81.54
16544;BME280;8384;47.996;7.786;2023-02-22T06:40:31;98557.59;;;2.07;81.62
16544;BME280;8384;47.996;7.786;2023-02-22T06:42:57;98555.69;;;2.07;81.71
16544;BME280;8384;47.996;7.786;2023-02-22T06:45:23;98540.56;;;2.06;81.32
16544;BME280;8384;47.996;7.786;2023-02-22T06:47:49;98535.75;;;2.15;81.63
16544;BME280;8384;47.996;7.786;2023-02-22T06:50:23;98546.13;;;2.25;81.70
16544;BME280;8384;47.996;7.786;2023-02-22T06:52:50;98549.19;;;2.35;81.53
16544;BME280;8384;47.996;7.786;2023-02-22T06:55:20;98543.56;;;2.44;81.36
16544;BME280;8384;47.996;7.786;2023-02-22T06:57:46;98559.25;;;2.67;80.45
16544;BME280;8384;47.996;7.786;2023-02-22T07:00:13;98539.34;;;2.61;80.16
16544;BME280;8384;47.996;7.786;2023-02-22T07:02:39;98561.22;;;2.85;80.02
16544;BME280;8384;47.996;7.786;2023-02-22T07:05:04;98536.25;;;2.96;77.57
16544;BME280;8384;47.996;7.786;2023-02-22T07:07:30;98554.00;;;3.18;77.08
16544;BME280;8384;47.996;7.786;2023-02-22T07:09:55;98561.63;;;3.27;76.49
16544;BME280;8384;47.996;7.786;2023-02-22T07:12:20;98541.06;;;3.26;76.73
16544;BME280;8384;47.996;7.786;2023-02-22T07:14:46;98550.66;;;3.48;75.09
16544;BME280;8384;47.996;7.786;2023-02-22T07:17:11;98548.91;;;3.60;74.25
16544;BME280;8384;47.996;7.786;2023-02-22T07:19:36;98565.66;;;3.94;73.35
16544;BME280;8384;47.996;7.786;2023-02-22T07:22:01;98535.84;;;4.01;72.14
16544;BME280;8384;47.996;7.786;2023-02-22T07:24:27;98554.25;;;4.29;71.60
16544;BME280;8384;47.996;7.786;2023-02-22T07:26:52;98551.50;;;4.36;71.36
16544;BME280;8384;47.996;7.786;2023-02-22T07:29:18;98545.38;;;4.59;70.33
16544;BME280;8384;47.996;7.786;2023-02-22T07:31:43;98539.47;;;4.81;71.34
16544;BME280;8384;47.996;7.786;2023-02-22T07:34:08;98535.00;;;5.05;68.04
16544;BME280;8384;47.996;7.786;2023-02-22T07:36:34;98540.94;;;5.26;67.01
16544;BME280;8384;47.996;7.786;2023-02-22T07:38:59;98537.94;;;5.46;66.24
16544;BME280;8384;47.996;7.786;2023-02-22T07:41:24;98540.66;;;5.58;65.09
16544;BME280;8384;47.996;7.786;2023-02-22T07:43:50;98548.22;;;5.68;64.98
16544;BME280;8384;47.996;7.786;2023-02-22T07:46:15;98541.13;;;5.79;63.86
16544;BME280;8384;47.996;7.786;2023-02-22T07:48:40;98542.78;;;5.92;63.38
16544;BME280;8384;47.996;7.786;2023-02-22T07:51:05;98531.84;;;6.10;61.98
16544;BME280;8384;47.996;7.786;2023-02-22T07:53:31;98542.78;;;6.27;61.85
16544;BME280;8384;47.996;7.786;2023-02-22T07:55:59;98553.53;;;6.46;61.49
16544;BME280;8384;47.996;7.786;2023-02-22T07:58:27;98544.16;;;6.66;59.63
16544;BME280;8384;47.996;7.786;2023-02-22T08:00:53;98523.00;;;6.68;59.24
16544;BME280;8384;47.996;7.786;2023-02-22T08:03:21;98525.38;;;6.93;57.84
16544;BME280;8384;47.996;7.786;2023-02-22T08:05:50;98550.03;;;7.32;57.27
16544;BME280;8384;47.996;7.786;2023-02-22T08:08:16;98479.78;;;7.12;57.56
16544;BME280;8384;47.996;7.786;2023-02-22T08:10:42;98525.72;;;7.60;56.00
16544;BME280;8384;47.996;7.786;2023-02-22T08:13:08;98542.78;;;7.72;55.28
16544;BME280;8384;47.996;7.786;2023-02-22T08:15:39;98551.53;;;7.91;54.71
16544;BME280;8384;47.996;7.786;2023-02-22T08:18:07;98544.66;;;7.89;54.78
16544;BME280;8384;47.996;7.786;2023-02-22T08:20:33;98552.16;;;7.81;54.99
16544;BME280;8384;47.996;7.786;2023-02-22T08:22:59;98518.22;;;7.67;55.50
16544;BME280;8384;47.996;7.786;2023-02-22T08:25:26;98532.31;;;7.98;55.64
16544;BME280;8384;47.996;7.786;2023-02-22T08:27:56;98525.88;;;8.04;55.11
16544;BME280;8384;47.996;7.786;2023-02-22T08:30:23;98518.16;;;8.18;54.67
16544;BME280;8384;47.996;7.786;2023-02-22T08:32:49;98522.47;;;8.36;53.77
16544;BME280;8384;47.996;7.786;2023-02-22T08:35:17;98555.22;;;8.81;53.07
16544;BME280;8384;47.996;7.786;2023-02-22T08:37:44;98540.38;;;8.72;52.33
16544;BME280;8384;47.996;7.786;2023-02-22T08:40:11;98522.88;;;8.90;51.69
16544;BME280;8384;47.996;7.786;2023-02-22T08:42:36;98567.22;;;9.07;52.33
16544;BME280;8384;47.996;7.786;2023-02-22T08:45:02;98531.84;;;8.90;52.01
16544;BME280;8384;47.996;7.786;2023-02-22T08:47:27;98524.06;;;8.99;52.34
16544;BME280;8384;47.996;7.786;2023-02-22T08:49:52;98572.44;;;9.64;50.18
16544;BME280;8384;47.996;7.786;2023-02-22T08:52:19;98544.25;;;9.90;49.52
16544;BME280;8384;47.996;7.786;2023-02-22T08:54:45;98539.34;;;9.93;49.43
16544;BME280;8384;47.996;7.786;2023-02-22T08:57:11;98542.09;;;9.98;49.49
16544;BME280;8384;47.996;7.786;2023-02-22T08:59:36;98555.47;;;10.37;49.03
16544;BME280;8384;47.996;7.786;2023-02-22T09:02:02;98543.38;;;10.28;48.79
16544;BME280;8384;47.996;7.786;2023-02-22T09:04:27;98547.34;;;10.42;48.90
16544;BME280;8384;47.996;7.786;2023-02-22T09:06:52;98560.22;;;10.52;49.21
16544;BME280;8384;47.996;7.786;2023-02-22T09:09:18;98525.81;;;10.56;49.21
16544;BME280;8384;47.996;7.786;2023-02-22T09:11:45;98536.25;;;10.75;49.70
16544;BME280;8384;47.996;7.786;2023-02-22T09:14:11;98542.63;;;10.96;49.64
16544;BME280;8384;47.996;7.786;2023-02-22T09:16:38;98560.47;;;11.19;50.00
16544;BME280;8384;47.996;7.786;2023-02-22T09:19:03;98549.53;;;11.30;49.94
16544;BME280;8384;47.996;7.786;2023-02-22T09:21:29;98507.13;;;11.32;49.23
16544;BME280;8384;47.996;7.786;2023-02-22T09:23:55;98513.72;;;11.67;49.74
16544;BME280;8384;47.996;7.786;2023-02-22T09:26:21;98500.88;;;11.63;51.54
16544;BME280;8384;47.996;7.786;2023-02-22T09:28:48;98533.16;;;12.02;52.17
16544;BME280;8384;47.996;7.786;2023-02-22T09:31:13;98512.34;;;11.29;56.03
16544;BME280;8384;47.996;7.786;2023-02-22T09:33:40;98509.28;;;11.09;58.59
16544;BME280;8384;47.996;7.786;2023-02-22T09:36:06;98512.63;;;11.43;59.51
16544;BME280;8384;47.996;7.786;2023-02-22T09:38:31;98525.75;;;11.25;61.39
16544;BME280;8384;47.996;7.786;2023-02-22T09:41:13;98466.84;;;10.86;63.83
16544;BME280;8384;47.996;7.786;2023-02-22T09:44:13;98522.47;;;11.49;64.60
16544;BME280;8384;47.996;7.786;2023-02-22T09:46:41;98515.63;;;11.62;65.02
16544;BME280;8384;47.996;7.786;2023-02-22T09:49:36;98454.31;;;11.21;64.79
16544;BME280;8384;47.996;7.786;2023-02-22T09:52:10;98540.53;;;11.96;64.92
16544;BME280;8384;47.996;7.786;2023-02-22T09:54:40;98536.69;;;11.82;64.71
16544;BME280;8384;47.996;7.786;2023-02-22T09:57:20;98546.84;;;11.87;65.05
16544;BME280;8384;47.996;7.786;2023-02-22T10:00:00;98531.78;;;11.58;65.98
16544;BME280;8384;47.996;7.786;2023-02-22T10:02:43;98529.03;;;11.94;65.31
16544;BME280;8384;47.996;7.786;2023-02-22T10:05:20;98474.28;;;11.63;64.24
16544;BME280;8384;47.996;7.786;2023-02-22T10:08:00;98509.88;;;11.58;65.22
16544;BME280;8384;47.996;7.786;2023-02-22T10:10:31;98536.44;;;12.14;64.02
16544;BME280;8384;47.996;7.786;2023-02-22T10:13:28;98531.13;;;12.54;62.42
16544;BME280;8384;47.996;7.786;2023-02-22T10:19:08;98458.38;;;11.81;62.31
16544;BME280;8384;47.996;7.786;2023-02-22T10:22:08;98534.44;;;12.36;61.84
16544;BME280;8384;47.996;7.786;2023-02-22T10:24:57;98529.91;;;12.81;60.56
16544;BME280;8384;47.996;7.786;2023-02-22T10:27:32;98538.69;;;13.28;58.64
16544;BME280;8384;47.996;7.786;2023-02-22T10:32:41;98540.94;;;12.66;60.89
16544;BME280;8384;47.996;7.786;2023-02-22T10:35:20;98496.44;;;12.84;59.35
16544;BME280;8384;47.996;7.786;2023-02-22T10:37:47;98525.44;;;12.96;59.55
16544;BME280;8384;47.996;7.786;2023-02-22T10:40:18;98521.41;;;12.83;60.15
16544;BME280;8384;47.996;7.786;2023-02-22T10:42:48;98440.91;;;12.58;59.41
16544;BME280;8384;47.996;7.786;2023-02-22T10:45:21;98510.41;;;12.88;59.86
16544;BME280;8384;47.996;7.786;2023-02-22T10:47:49;98499.63;;;13.02;59.28
16544;BME280;8384;47.996;7.786;2023-02-22T10:50:15;98524.34;;;12.97;59.24
16544;BME280;8384;47.996;7.786;2023-02-22T10:52:40;98529.50;;;13.03;58.56
16544;BME280;8384;47.996;7.786;2023-02-22T10:55:12;98505.13;;;13.02;58.52
16544;BME280;8384;47.996;7.786;2023-02-22T10:57:37;98520.09;;;13.20;57.63
16544;BME280;8384;47.996;7.786;2023-02-22T11:00:27;98511.16;;;13.49;57.70
16544;BME280;8384;47.996;7.786;2023-02-22T11:02:55;98528.75;;;13.38;57.55
16544;BME280;8384;47.996;7.786;2023-02-22T11:05:39;98492.41;;;13.56;55.89
16544;BME280;8384;47.996;7.786;2023-02-22T11:10:47;98502.66;;;13.40;56.67
16544;BME280;8384;47.996;7.786;2023-02-22T11:13:23;98512.28;;;12.98;58.37
16544;BME280;8384;47.996;7.786;2023-02-22T11:15:54;98523.38;;;12.72;59.19
16544;BME280;8384;47.996;7.786;2023-02-22T11:18:30;98512.25;;;12.37;61.22
16544;BME280;8384;47.996;7.786;2023-02-22T11:21:10;98515.31;;;12.20;60.88
16544;BME280;8384;47.996;7.786;2023-02-22T11:23:39;98508.41;;;12.43;60.54
16544;BME280;8384;47.996;7.786;2023-02-22T11:26:11;98515.00;;;12.32;61.20
16544;BME280;8384;47.996;7.786;2023-02-22T11:28:45;98483.97;;;12.52;60.51
16544;BME280;8384;47.996;7.786;2023-02-22T11:31:21;98495.94;;;12.72;60.08
16544;BME280;8384;47.996;7.786;2023-02-22T11:33:58;98504.19;;;12.67;59.62
16544;BME280;8384;47.996;7.786;2023-02-22T11:36:34;98468.34;;;12.53;59.72
16544;BME280;8384;47.996;7.786;2023-02-22T11:39:01;98475.34;;;12.80;59.27
16544;BME280;8384;47.996;7.786;2023-02-22T11:41:31;98494.81;;;12.83;59.02
16544;BME280;8384;47.996;7.786;2023-02-22T11:44:13;98473.88;;;12.42;59.27
16544;BME280;8384;47.996;7.786;2023-02-22T11:46:40;98488.13;;;12.44;61.07
16544;BME280;8384;47.996;7.786;2023-02-22T11:49:09;98496.38;;;12.24;60.75
16544;BME280;8384;47.996;7.786;2023-02-22T11:52:04;98490.97;;;12.79;59.00
16544;BME280;8384;47.996;7.786;2023-02-22T11:55:05;98463.81;;;12.17;60.06
16544;BME280;8384;47.996;7.786;2023-02-22T12:08:45;98472.34;;;12.76;59.54
16544;BME280;8384;47.996;7.786;2023-02-22T12:11:21;98475.25;;;12.40;60.42
16544;BME280;8384;47.996;7.786;2023-02-22T12:14:25;98322.00;;;11.88;59.05
16544;BME280;8384;47.996;7.786;2023-02-22T12:19:54;98474.31;;;12.65;60.61
16544;BME280;8384;47.996;7.786;2023-02-22T12:22:24;98463.69;;;12.53;60.76
16544;BME280;8384;47.996;7.786;2023-02-22T12:24:55;98479.25;;;12.63;60.81
16544;BME280;8384;47.996;7.786;2023-02-22T12:27:27;98488.06;;;12.60;59.96
16544;BME280;8384;47.996;7.786;2023-02-22T12:30:10;98487.38;;;12.84;60.08
16544;BME280;8384;47.996;7.786;2023-02-22T12:32:50;98477.88;;;12.60;61.42
16544;BME280;8384;47.996;7.786;2023-02-22T12:35:22;98489.16;;;12.54;60.79
16544;BME280;8384;47.996;7.786;2023-02-22T12:38:08;98467.59;;;12.92;59.95
16544;BME280;8384;47.996;7.786;2023-02-22T12:40:48;98486.88;;;12.77;60.07
16544;BME280;8384;47.996;7.786;2023-02-22T12:43:26;98484.00;;;12.42;61.54
16544;BME280;8384;47.996;7.786;2023-02-22T12:46:15;98464.19;;;12.60;61.44
16544;BME280;8384;47.996;7.786;2023-02-22T12:49:25;98488.50;;;12.78;61.41
16544;BME280;8384;47.996;7.786;2023-02-22T12:52:02;98483.97;;;13.02;60.45
16544;BME280;8384;47.996;7.786;2023-02-22T12:54:42;98487.69;;;12.77;60.98
16544;BME280;8384;47.996;7.786;2023-02-22T12:57:43;98489.13;;;12.69;61.31
16544;BME280;8384;47.996;7.786;2023-02-22T13:00:25;98469.09;;;12.64;61.55
16544;BME280;8384;47.996;7.786;2023-02-22T13:03:03;98480.44;;;13.02;60.20
16544;BME280;8384;47.996;7.786;2023-02-22T13:05:33;98469.53;;;12.86;60.77
16544;BME280;8384;47.996;7.786;2023-02-22T13:08:16;98475.75;;;12.52;62.48
16544;BME280;8384;47.996;7.786;2023-02-22T13:11:07;98480.00;;;12.84;61.45
16544;BME280;8384;47.996;7.786;2023-02-22T13:16:32;98499.59;;;12.52;62.09
16544;BME280;8384;47.996;7.786;2023-02-22T13:22:13;98466.84;;;12.81;61.38
16544;BME280;8384;47.996;7.786;2023-02-22T13:25:00;98446.81;;;12.75;60.87
16544;BME280;8384;47.996;7.786;2023-02-22T13:27:47;98476.63;;;12.93;61.50
16544;BME280;8384;47.996;7.786;2023-02-22T13:30:19;98480.75;;;12.95;61.57
16544;BME280;8384;47.996;7.786;2023-02-22T13:33:23;98474.13;;;12.46;63.16
16544;BME280;8384;47.996;7.786;2023-02-22T13:36:07;98478.94;;;12.75;63.06
16544;BME280;8384;47.996;7.786;2023-02-22T13:42:03;98471.47;;;12.86;62.67
16544;BME280;8384;47.996;7.786;2023-02-22T13:50:27;98466.44;;;12.98;61.98
16544;BME280;8384;47.996;7.786;2023-02-22T13:52:56;98434.31;;;12.59;63.07
16544;BME280;8384;47.996;7.786;2023-02-22T13:55:27;98469.19;;;12.48;64.02
16544;BME280;8384;47.996;7.786;2023-02-22T13:58:03;98451.09;;;12.47;64.01
16544;BME280;8384;47.996;7.786;2023-02-22T14:13:10;98460.34;;;12.62;63.83
16544;BME280;8384;47.996;7.786;2023-02-22T14:15:35;98463.34;;;12.70;64.16
16544;BME280;8384;47.996;7.786;2023-02-22T14:18:21;98443.13;;;12.51;64.61
16544;BME280;8384;47.996;7.786;2023-02-22T14:21:07;98435.44;;;12.53;64.75
16544;BME280;8384;47.996;7.786;2023-02-22T14:23:34;98455.16;;;12.60;64.70
16544;BME280;8384;47.996;7.786;2023-02-22T14:26:10;98455.31;;;12.79;64.53
16544;BME280;8384;47.996;7.786;2023-02-22T14:28:49;98456.50;;;12.63;64.45
16544;BME280;8384;47.996;7.786;2023-02-22T14:31:18;98436.75;;;12.60;64.98
16544;BME280;8384;47.996;7.786;2023-02-22T14:36:20;98455.31;;;12.79;64.53
16544;BME280;8384;47.996;7.786;2023-02-22T14:38:48;98446.63;;;12.62;64.50
16544;BME280;8384;47.996;7.786;2023-02-22T14:41:17;98460.47;;;12.91;63.96
16544;BME280;8384;47.996;7.786;2023-02-22T14:43:42;98462.13;;;12.87;64.38
16544;BME280;8384;47.996;7.786;2023-02-22T14:46:12;98432.81;;;12.82;64.02
16544;BME280;8384;47.996;7.786;2023-02-22T14:48:42;98452.66;;;13.09;63.41